Time;durP1;ratioP1;P1;durP2;ratioP2;P2;SDS_P1;SDS_P2;PMS_P1;PMS_P2;Temp;Humidity;BMP_temperature;BMP_pressure;BME280_temperature;BME280_humidity;BME280_pressure;Samples;Min_cycle;Max_cycle;Signal;HPM_P1;HPM_P2
2021/12/14 00:01:55;;;;;;;6.95;3.63;;;;;;;-1.67;100.00;101108.19;5071383;28;20139;-70
2021/12/14 00:04:25;;;;;;;5.53;3.38;;;;;;;-1.61;100.00;101106.53;5071458;28;20117;-63
2021/12/14 00:06:56;;;;;;;9.07;3.30;;;;;;;-1.56;100.00;101102.28;5071362;28;20117;-66
2021/12/14 00:09:28;;;;;;;7.63;3.22;;;;;;;-1.48;100.00;101111.63;5071383;28;20637;-63
2021/12/14 00:12:12;;;;;;;8.40;3.70;;;;;;;-1.40;100.00;101110.78;5071997;28;20056;-64
2021/12/14 00:17:33;;;;;;;7.00;3.50;;;;;;;-1.48;100.00;101091.22;5071987;28;20055;-64
2021/12/14 00:20:07;;;;;;;5.28;2.78;;;;;;;-1.51;100.00;101092.06;5075024;28;20502;-64
2021/12/14 00:24:05;;;;;;;6.10;2.97;;;;;;;-1.71;100.00;101083.56;5074669;28;20511;-64
2021/12/14 00:25:24;;;;;;;5.43;3.25;;;;;;;-1.87;100.00;101086.09;5074992;28;20433;-63
2021/12/14 00:27:51;;;;;;;5.45;3.03;;;;;;;-1.82;100.00;101078.44;5074786;28;20056;-63
2021/12/14 00:30:19;;;;;;;7.35;3.75;;;;;;;-1.79;100.00;101076.75;5075135;28;20135;-64
2021/12/14 00:32:45;;;;;;;;;;;;;;;-1.62;100.00;101074.22;5075396;28;20045;-63
2021/12/14 00:35:13;;;;;;;6.38;2.78;;;;;;;-1.51;100.00;101073.34;5074710;28;19959;-62
2021/12/14 00:37:46;;;;;;;6.03;2.50;;;;;;;-1.56;100.00;101068.25;5074615;28;20061;-65
2021/12/14 00:40:17;;;;;;;4.78;2.67;;;;;;;-1.74;100.00;101069.09;5074754;28;20045;-62
2021/12/14 00:42:44;;;;;;;5.45;2.58;;;;;;;-1.46;100.00;101069.94;5074722;28;20049;-63
2021/12/14 00:45:11;;;;;;;4.60;2.47;;;;;;;-1.33;100.00;101073.34;5074811;28;20489;-63
2021/12/14 00:47:38;;;;;;;4.10;2.35;;;;;;;-1.28;100.00;101081.84;5074949;28;20132;-64
2021/12/14 00:50:07;;;;;;;3.78;2.42;;;;;;;-1.33;100.00;101081.84;5074643;28;20139;-62
2021/12/14 00:52:34;;;;;;;5.10;2.67;;;;;;;-1.49;100.00;101071.63;5074377;28;20143;-64
2021/12/14 00:55:06;;;;;;;4.32;2.67;;;;;;;-1.66;100.00;101061.44;5074534;28;20071;-63
2021/12/14 00:57:36;;;;;;;4.38;2.47;;;;;;;-1.80;100.00;101059.75;5074000;28;20048;-66
2021/12/14 01:00:07;;;;;;;5.35;3.05;;;;;;;-1.87;100.00;101059.75;5074513;28;20048;-63
2021/12/14 01:02:34;;;;;;;5.22;2.45;;;;;;;-1.82;100.00;101055.50;5074207;28;20052;-64
2021/12/14 01:05:07;;;;;;;3.70;2.35;;;;;;;-1.68;100.00;101047.81;5074160;28;20045;-63
2021/12/14 01:07:34;;;;;;;4.80;2.63;;;;;;;-1.55;100.00;101044.41;5074317;28;20072;-63
2021/12/14 01:10:09;;;;;;;6.50;2.85;;;;;;;-1.73;100.00;101044.44;5074160;28;20051;-64
2021/12/14 01:12:43;;;;;;;5.65;2.88;;;;;;;-1.81;100.00;101037.63;5074331;28;20131;-65
2021/12/14 01:15:24;;;;;;;5.43;2.47;;;;;;;-1.49;100.00;101033.34;5074366;28;20095;-63
2021/12/14 01:18:01;;;;;;;4.25;2.88;;;;;;;-1.33;100.00;101040.16;5074158;28;20082;-64
2021/12/14 01:20:36;;;;;;;5.18;2.85;;;;;;;-1.27;100.00;101040.13;5074048;28;20071;-63
2021/12/14 01:23:13;;;;;;;5.15;2.83;;;;;;;-1.25;100.00;101040.16;5073558;28;20045;-63
2021/12/14 01:25:44;;;;;;;4.07;2.60;;;;;;;-1.29;100.00;101031.63;5074055;28;20049;-66
2021/12/14 01:28:14;;;;;;;3.40;2.33;;;;;;;-1.22;100.00;101032.47;5074140;28;20083;-66
2021/12/14 01:30:54;;;;;;;6.05;2.88;;;;;;;-1.54;100.00;101029.13;5073368;28;20098;-66
2021/12/14 01:33:23;;;;;;;4.28;2.70;;;;;;;-1.51;100.00;101019.75;5073726;28;20131;-63
2021/12/14 01:35:51;;;;;;;5.10;2.75;;;;;;;-1.59;100.00;101023.16;5073565;28;20073;-64
2021/12/14 01:38:32;;;;;;;5.70;3.00;;;;;;;-1.44;100.00;101016.31;5073456;28;20044;-63
2021/12/14 01:41:05;;;;;;;5.82;3.05;;;;;;;-1.55;100.00;101019.75;5073491;28;20048;-63
2021/12/14 01:43:38;;;;;;;6.38;3.10;;;;;;;-1.54;100.00;101016.34;5073416;28;20044;-68
2021/12/14 01:46:11;;;;;;;6.07;3.20;;;;;;;-1.64;100.00;101021.47;5073566;28;20068;-64
2021/12/14 01:48:38;;;;;;;4.82;2.90;;;;;;;-1.58;100.00;101019.75;5073343;28;20091;-63
2021/12/14 01:51:07;;;;;;;5.03;2.92;;;;;;;-1.67;100.00;101009.56;5073275;28;20135;-64
2021/12/14 01:53:35;;;;;;;5.28;2.88;;;;;;;-1.66;100.00;101011.25;5073200;28;20471;-64
2021/12/14 01:56:07;;;;;;;4.03;2.70;;;;;;;-1.63;100.00;101012.97;5073231;28;20055;-64
2021/12/14 01:58:38;;;;;;;7.47;3.22;;;;;;;-1.60;100.00;101001.03;5073081;28;20127;-63
2021/12/14 02:01:12;;;;;;;4.47;3.00;;;;;;;-1.42;100.00;101005.25;5073067;28;20123;-61
2021/12/14 02:03:43;;;;;;;6.03;3.65;;;;;;;-1.51;100.00;101000.19;5072886;28;20053;-64
2021/12/14 02:06:14;;;;;;;5.97;3.50;;;;;;;-1.48;100.00;100986.56;5072997;28;20433;-63
2021/12/14 02:08:41;;;;;;;5.22;2.83;;;;;;;-1.33;100.00;100991.66;5072836;28;20051;-75
2021/12/14 02:11:11;;;;;;;6.70;3.75;;;;;;;-1.28;100.00;100987.38;5073001;28;20336;-68
2021/12/14 02:13:41;;;;;;;5.78;3.70;;;;;;;-1.34;100.00;100979.72;5073209;28;20060;-65
2021/12/14 02:16:11;;;;;;;7.80;3.63;;;;;;;-1.12;100.00;100978.81;5072534;28;20140;-64
2021/12/14 02:18:43;;;;;;;7.05;3.70;;;;;;;-1.18;100.00;100968.63;5072594;28;20478;-63
2021/12/14 02:21:13;;;;;;;5.03;3.08;;;;;;;-1.04;100.00;100960.06;5072680;28;20076;-63
2021/12/14 02:23:43;;;;;;;7.43;4.13;;;;;;;-1.29;100.00;100965.25;5072438;28;20512;-69
2021/12/14 02:26:13;;;;;;;6.10;3.35;;;;;;;-1.20;100.00;100959.28;5072915;28;20381;-64
2021/12/14 02:28:41;;;;;;;5.75;3.65;;;;;;;-1.18;100.00;100970.31;5072448;28;20049;-65
2021/12/14 02:31:11;;;;;;;7.05;4.20;;;;;;;-1.14;100.00;100964.34;5072526;28;20045;-63
2021/12/14 02:33:41;;;;;;;7.22;4.18;;;;;;;-1.09;100.00;100954.97;5072553;28;20136;-64
2021/12/14 02:36:13;;;;;;;9.00;4.53;;;;;;;-1.12;100.00;100948.16;5072551;28;20080;-64
2021/12/14 02:38:41;;;;;;;7.55;3.78;;;;;;;-1.09;100.00;100949.88;5072390;28;20482;-68
2021/12/14 02:41:10;;;;;;;8.55;4.15;;;;;;;-1.07;100.00;100944.75;5072215;28;20068;-64
2021/12/14 02:43:40;;;;;;;9.65;4.15;;;;;;;-1.12;100.00;100945.63;5072294;28;20525;-64
2021/12/14 02:46:12;;;;;;;9.25;4.47;;;;;;;-1.07;100.00;100932.00;5072087;28;20048;-67
2021/12/14 02:48:41;;;;;;;10.55;4.53;;;;;;;-1.10;100.00;100928.59;5072209;28;21943;-63
2021/12/14 02:51:14;;;;;;;8.70;4.10;;;;;;;-1.07;100.00;100924.34;5072105;28;20127;-63
2021/12/14 02:53:43;;;;;;;7.05;3.80;;;;;;;-1.10;100.00;100925.19;5072083;28;20063;-63
2021/12/14 02:56:14;;;;;;;8.00;3.95;;;;;;;-1.08;100.00;100910.69;5072322;28;20127;-64
2021/12/14 02:58:42;;;;;;;7.45;4.03;;;;;;;-1.11;100.00;100905.59;5072154;28;20121;-62
2021/12/14 03:01:10;;;;;;;10.32;4.05;;;;;;;-1.14;100.00;100905.63;5072191;28;20055;-65
2021/12/14 03:03:37;;;;;;;8.45;3.72;;;;;;;-1.06;100.00;100892.81;5072087;28;20414;-63
2021/12/14 03:06:06;;;;;;;6.97;3.80;;;;;;;-1.07;100.00;100894.53;5071998;28;20558;-64
2021/12/14 03:08:43;;;;;;;6.63;3.88;;;;;;;-1.08;100.00;100874.09;5071968;28;20530;-63
2021/12/14 03:11:12;;;;;;;7.03;3.78;;;;;;;-1.14;100.00;100873.25;5072099;28;20040;-63
2021/12/14 03:13:42;;;;;;;6.68;3.83;;;;;;;-1.05;100.00;100871.50;5072594;28;20044;-64
2021/12/14 03:16:12;;;;;;;6.15;3.60;;;;;;;-1.10;100.00;100867.31;5072038;28;20044;-63
2021/12/14 03:18:42;;;;;;;5.97;3.15;;;;;;;-1.12;100.00;100857.94;5071872;28;20052;-63
2021/12/14 03:21:11;;;;;;;7.13;3.65;;;;;;;-1.02;100.00;100846.81;5072030;28;20044;-63
2021/12/14 03:23:42;;;;;;;6.22;3.25;;;;;;;-1.06;100.00;100849.41;5071797;28;20049;-64
2021/12/14 03:26:13;;;;;;;5.22;3.45;;;;;;;-1.13;100.00;100843.47;5071998;28;20048;-63
2021/12/14 03:28:41;;;;;;;5.50;2.78;;;;;;;-1.05;100.00;100849.41;5071914;28;20049;-63
2021/12/14 03:31:23;;;;;;;4.80;3.20;;;;;;;-1.09;100.00;100852.81;5071944;28;20144;-66
2021/12/14 03:33:55;;;;;;;5.90;2.78;;;;;;;-1.08;100.00;100848.56;5072063;28;20053;-63
2021/12/14 03:36:25;;;;;;;4.38;2.72;;;;;;;-1.06;100.00;100857.91;5071662;28;20054;-63
2021/12/14 03:39:00;;;;;;;4.78;2.40;;;;;;;-1.05;100.00;100867.28;5071785;28;20112;-63
2021/12/14 03:41:30;;;;;;;6.15;2.85;;;;;;;-1.04;100.00;100857.91;5071956;28;20143;-64
2021/12/14 03:44:03;;;;;;;8.45;3.28;;;;;;;-1.08;100.00;100851.09;5072164;28;20052;-65
2021/12/14 03:46:32;;;;;;;5.95;3.33;;;;;;;-1.08;100.00;100856.22;5071628;28;20048;-63
2021/12/14 03:49:01;;;;;;;5.95;3.72;;;;;;;-1.08;100.00;100851.09;5071629;28;20135;-63
2021/12/14 03:51:28;;;;;;;5.68;3.33;;;;;;;-1.07;100.00;100848.56;5071695;28;20487;-63
2021/12/14 03:53:58;;;;;;;5.65;3.40;;;;;;;-1.04;100.00;100845.97;5074353;28;20478;-63
2021/12/14 03:56:26;;;;;;;5.85;2.80;;;;;;;-1.06;100.00;100842.59;5075862;28;20151;-63
2021/12/14 03:58:54;;;;;;;6.30;3.60;;;;;;;-1.05;100.00;100836.63;5075647;28;20055;-64
2021/12/14 04:01:25;;;;;;;5.25;3.42;;;;;;;-1.10;100.00;100828.16;5075628;28;20135;-66
2021/12/14 04:03:56;;;;;;;6.95;2.78;;;;;;;-1.05;100.00;100826.41;5075480;28;20080;-63
2021/12/14 04:06:23;;;;;;;5.70;3.35;;;;;;;-1.06;100.00;100832.38;5075448;28;20135;-62
2021/12/14 04:08:51;;;;;;;4.55;2.78;;;;;;;-1.07;100.00;100822.19;5075515;28;20050;-65
2021/12/14 04:11:20;;;;;;;5.95;3.72;;;;;;;-1.00;100.00;100822.13;5075146;28;20072;-70
2021/12/14 04:13:50;;;;;;;4.68;2.78;;;;;;;-1.01;100.00;100811.91;5075630;28;20152;-66
2021/12/14 04:16:21;;;;;;;3.42;2.60;;;;;;;-1.02;100.00;100812.78;5075110;28;20178;-63
2021/12/14 04:18:48;;;;;;;3.80;2.75;;;;;;;-1.05;100.00;100810.22;5075116;28;20131;-62
2021/12/14 04:21:15;;;;;;;;;;;;;;;-1.12;100.00;100800.06;5075675;28;20041;-63
2021/12/14 04:23:45;;;;;;;4.65;2.28;;;;;;;-1.03;100.00;100805.97;5075412;28;20015;-63
2021/12/14 04:26:14;;;;;;;3.53;2.42;;;;;;;-1.03;100.00;100803.41;5075039;28;20045;-65
2021/12/14 04:28:47;;;;;;;6.75;3.60;;;;;;;-1.15;100.00;100804.34;5074967;28;20044;-64
2021/12/14 04:31:14;;;;;;;6.40;3.30;;;;;;;-1.03;100.00;100790.63;5074857;28;20059;-66
2021/12/14 04:33:43;;;;;;;5.00;3.38;;;;;;;-1.07;100.00;100787.28;5074661;28;20048;-63
2021/12/14 04:36:15;;;;;;;5.30;3.15;;;;;;;-1.00;100.00;100777.84;5074967;28;20048;-71
2021/12/14 04:38:52;;;;;;;7.05;3.30;;;;;;;-1.02;100.00;100771.91;5075085;28;20052;-64
2021/12/14 04:52:25;;;;;;;6.78;3.15;;;;;;;-0.99;100.00;100769.34;5074700;28;20068;-64
2021/12/14 04:54:54;;;;;;;6.53;3.15;;;;;;;-1.01;100.00;100768.50;5074945;28;20149;-64
2021/12/14 04:57:28;;;;;;;5.55;2.90;;;;;;;-0.98;100.00;100763.38;5074458;28;20139;-72
2021/12/14 05:00:00;;;;;;;4.63;2.42;;;;;;;-0.99;100.00;100754.03;5074580;28;20232;-63
2021/12/14 05:02:31;;;;;;;3.65;2.40;;;;;;;-0.99;100.00;100747.19;5074445;28;20080;-63
2021/12/14 05:04:59;;;;;;;3.00;2.03;;;;;;;-1.02;100.00;100743.84;5073197;28;20048;-63
2021/12/14 05:10:10;;;;;;;5.60;3.00;;;;;;;-1.03;100.00;100747.22;5071722;28;20048;-64
2021/12/14 05:12:38;;;;;;;3.38;2.45;;;;;;;-1.00;100.00;100742.09;5074196;28;20131;-64
2021/12/14 05:15:11;;;;;;;5.90;3.22;;;;;;;-1.04;100.00;100740.44;5074298;28;20072;-68
2021/12/14 05:17:41;;;;;;;4.32;2.47;;;;;;;-1.01;100.00;100738.69;5074449;28;20128;-64
2021/12/14 05:20:11;;;;;;;5.03;2.95;;;;;;;-1.02;100.00;100737.00;5074098;28;20055;-65
2021/12/14 05:22:42;;;;;;;4.20;2.47;;;;;;;-1.00;100.00;100730.19;5074274;28;20055;-63
2021/12/14 05:25:14;;;;;;;5.35;2.78;;;;;;;-1.00;100.00;100732.75;5074189;28;20072;-66
2021/12/14 05:27:44;;;;;;;4.15;2.15;;;;;;;-1.00;100.00;100725.09;5074041;28;20068;-64
2021/12/14 05:30:16;;;;;;;4.70;2.83;;;;;;;-0.99;100.00;100710.59;5074146;28;20102;-69
2021/12/14 05:32:44;;;;;;;6.55;3.55;;;;;;;-1.01;100.00;100714.88;5073828;28;20139;-67
2021/12/14 05:35:15;;;;;;;6.75;3.40;;;;;;;-0.97;100.00;100699.50;5073882;28;20080;-64
2021/12/14 05:37:48;;;;;;;4.40;2.97;;;;;;;-0.97;100.00;100686.75;5073497;28;20128;-63
2021/12/14 05:40:26;;;;;;;4.75;2.85;;;;;;;-1.00;100.00;100681.66;5073579;28;20055;-63
2021/12/14 05:43:07;;;;;;;4.55;2.70;;;;;;;-0.98;100.00;100690.13;5074335;28;20044;-69
2021/12/14 05:45:40;;;;;;;3.10;2.22;;;;;;;-0.97;100.00;100680.78;5073517;28;20486;-75
2021/12/14 05:48:08;;;;;;;2.80;1.88;;;;;;;-1.00;100.00;100676.56;5073660;28;20508;-72
2021/12/14 05:50:38;;;;;;;4.15;2.15;;;;;;;-0.98;100.00;100679.91;5073297;28;20055;-63
2021/12/14 05:53:07;;;;;;;4.55;2.40;;;;;;;-0.94;100.00;100681.59;5073550;28;20151;-65
2021/12/14 05:55:37;;;;;;;3.33;2.38;;;;;;;-0.99;100.00;100675.69;5073152;28;20044;-63
2021/12/14 05:58:11;;;;;;;3.72;2.53;;;;;;;-0.95;100.00;100668.81;5073032;28;20477;-64
2021/12/14 06:00:44;;;;;;;4.68;2.28;;;;;;;-0.94;100.00;100673.94;5073236;28;20447;-67
2021/12/14 06:03:16;;;;;;;2.50;1.95;;;;;;;-0.97;100.00;100673.13;5073034;28;20449;-65
2021/12/14 06:05:43;;;;;;;4.80;2.22;;;;;;;-0.99;100.00;100673.13;5073427;28;20124;-64
2021/12/14 06:08:17;;;;;;;4.03;2.63;;;;;;;-1.07;100.00;100682.56;5073464;28;20044;-68
2021/12/14 06:10:44;;;;;;;4.65;2.55;;;;;;;-1.04;100.00;100676.59;5073165;28;20091;-67
2021/12/14 06:13:11;;;;;;;4.03;2.47;;;;;;;-0.97;100.00;100678.25;5073179;28;20059;-68
2021/12/14 06:15:40;;;;;;;5.78;2.78;;;;;;;-1.04;100.00;100674.03;5072804;28;20079;-68
2021/12/14 06:18:07;;;;;;;3.17;2.30;;;;;;;-0.99;100.00;100672.28;5072824;28;20144;-70
2021/12/14 06:20:34;;;;;;;2.40;1.60;;;;;;;-0.99;100.00;100673.13;5073021;28;20139;-70
2021/12/14 06:23:01;;;;;;;4.78;2.00;;;;;;;-1.01;100.00;100674.84;5072931;28;20124;-64
2021/12/14 06:25:30;;;;;;;4.60;2.38;;;;;;;-1.05;100.00;100664.66;5072878;28;20079;-68
2021/12/14 06:28:01;;;;;;;4.10;2.47;;;;;;;-0.95;100.00;100669.69;5072627;28;20040;-63
2021/12/14 06:30:31;;;;;;;2.72;1.73;;;;;;;-0.96;100.00;100662.03;5072528;28;20048;-72
2021/12/14 06:33:02;;;;;;;2.45;1.83;;;;;;;-1.02;100.00;100654.44;5072665;28;20048;-65
2021/12/14 06:35:33;;;;;;;5.03;2.35;;;;;;;-1.04;100.00;100656.16;5072762;28;20052;-67
2021/12/14 06:40:56;;;;;;;2.30;1.75;;;;;;;-0.99;100.00;100652.69;5072563;28;20055;-71
2021/12/14 06:43:26;;;;;;;3.42;1.95;;;;;;;-1.04;100.00;100644.22;5073223;28;20051;-65
2021/12/14 06:45:56;;;;;;;2.47;1.95;;;;;;;-0.98;100.00;100654.38;5072443;28;20139;-67
2021/12/14 06:48:29;;;;;;;3.65;2.08;;;;;;;-0.99;100.00;100656.97;5072526;28;20055;-67
2021/12/14 06:51:01;;;;;;;2.25;1.88;;;;;;;-1.01;100.00;100654.41;5072284;28;20143;-67
2021/12/14 06:53:28;;;;;;;3.58;2.20;;;;;;;-1.05;100.00;100646.78;5072553;28;20136;-64
2021/12/14 06:55:58;;;;;;;2.80;1.75;;;;;;;-0.97;100.00;100655.25;5072390;28;20131;-64
2021/12/14 06:58:28;;;;;;;1.35;1.20;;;;;;;-0.95;100.00;100668.81;5072450;28;20140;-69
2021/12/14 07:01:03;;;;;;;4.15;2.05;;;;;;;-1.00;100.00;100657.81;5072430;28;20136;-67
2021/12/14 07:03:58;;;;;;;4.38;1.90;;;;;;;-1.04;100.00;100651.06;5072229;28;20079;-66
2021/12/14 07:06:28;;;;;;;2.85;1.85;;;;;;;-1.00;100.00;100647.59;5069039;28;20045;-66
2021/12/14 07:08:59;;;;;;;2.72;1.77;;;;;;;-0.95;100.00;100646.72;5071982;28;20044;-65
2021/12/14 07:11:27;;;;;;;2.15;1.60;;;;;;;-0.96;100.00;100641.59;5071685;28;20056;-70
2021/12/14 07:13:55;;;;;;;2.38;1.50;;;;;;;-0.94;100.00;100650.94;5072025;28;20052;-76
2021/12/14 07:16:30;;;;;;;2.20;1.60;;;;;;;-0.98;100.00;100643.31;5072256;28;20045;-72
2021/12/14 07:19:01;;;;;;;1.90;1.60;;;;;;;-0.91;100.00;100644.97;5072302;28;20560;-77
2021/12/14 07:21:39;;;;;;;1.33;1.23;;;;;;;-0.93;100.00;100644.13;5072323;28;20553;-76
2021/12/14 07:24:31;;;;;;;1.33;1.23;;;;;;;-0.93;100.00;100641.56;5072117;28;20075;-76
2021/12/14 07:27:24;;;;;;;2.30;1.63;;;;;;;-0.94;100.00;100634.78;5060859;28;20140;-73
2021/12/14 07:29:52;;;;;;;2.90;1.75;;;;;;;-0.95;100.00;100630.50;5071779;28;20143;-66
2021/12/14 07:32:38;;;;;;;2.55;1.90;;;;;;;-0.94;100.00;100625.41;5071898;28;20482;-73
2021/12/14 07:35:31;;;;;;;2.33;1.67;;;;;;;-0.91;100.00;100634.75;5072161;28;20135;-72
2021/12/14 07:38:02;;;;;;;2.47;1.52;;;;;;;-0.94;100.00;100632.22;5072025;28;20044;-70
2021/12/14 07:40:37;;;;;;;2.40;1.88;;;;;;;-1.05;100.00;100623.81;5072023;28;20103;-65
2021/12/14 07:43:16;;;;;;;2.67;2.00;;;;;;;-0.98;100.00;100620.34;5072648;28;20075;-70
2021/12/14 07:45:44;;;;;;;1.63;1.30;;;;;;;-0.89;100.00;100625.38;5072309;28;20048;-72
2021/12/14 07:48:11;;;;;;;3.08;1.80;;;;;;;-0.96;100.00;100628.84;5071892;28;20131;-70
2021/12/14 07:50:53;;;;;;;3.30;2.00;;;;;;;-0.94;100.00;100627.97;5071860;28;20044;-69
2021/12/14 07:53:37;;;;;;;2.83;1.73;;;;;;;-0.91;100.00;100627.94;5071513;28;20131;-72
2021/12/14 07:56:05;;;;;;;1.90;1.70;;;;;;;-0.86;100.00;100632.16;5072046;28;20106;-72
2021/12/14 07:58:36;;;;;;;3.80;1.75;;;;;;;-0.95;100.00;100628.84;5072222;28;20048;-67
2021/12/14 08:01:05;;;;;;;1.80;1.60;;;;;;;-0.89;100.00;100623.66;5071899;28;20422;-73
2021/12/14 08:03:33;;;;;;;2.33;1.70;;;;;;;-0.90;100.00;100621.97;5071809;28;20068;-70
2021/12/14 08:06:05;;;;;;;2.55;1.70;;;;;;;-0.93;100.00;100619.44;5071700;28;20052;-69
2021/12/14 08:08:42;;;;;;;2.65;1.80;;;;;;;-0.88;100.00;100615.13;5071465;28;20140;-68
2021/12/14 08:11:40;;;;;;;1.50;1.40;;;;;;;-0.90;100.00;100616.00;5072108;28;20056;-68
2021/12/14 08:14:12;;;;;;;2.10;1.35;;;;;;;-0.88;100.00;100617.66;5071603;28;20045;-70
2021/12/14 08:16:42;;;;;;;2.30;1.67;;;;;;;-0.92;100.00;100612.63;5071566;28;20132;-67
2021/12/14 08:19:14;;;;;;;3.03;1.70;;;;;;;-0.90;100.00;100610.88;5071649;28;20553;-68
2021/12/14 08:21:45;;;;;;;1.98;1.63;;;;;;;-0.86;100.00;100611.72;5071799;28;20051;-71
2021/12/14 08:24:13;;;;;;;2.55;1.83;;;;;;;-0.84;100.00;100613.41;5071632;28;20048;-70
2021/12/14 08:26:43;;;;;;;1.77;1.65;;;;;;;-0.88;100.00;100617.66;5071491;28;20510;-67
2021/12/14 08:29:14;;;;;;;2.55;1.77;;;;;;;-0.87;100.00;100621.09;5071690;28;20055;-68
2021/12/14 08:31:44;;;;;;;2.55;1.60;;;;;;;-0.91;100.00;100620.25;5071321;28;20052;-65
2021/12/14 08:34:13;;;;;;;1.67;1.23;;;;;;;-0.86;100.00;100614.28;5071413;28;20049;-71
2021/12/14 08:36:46;;;;;;;2.53;1.77;;;;;;;-0.88;100.00;100616.81;5071519;28;20080;-68
2021/12/14 08:39:18;;;;;;;2.05;1.60;;;;;;;-0.87;100.00;100616.00;5072891;28;20063;-67
2021/12/14 08:41:54;;;;;;;1.90;1.73;;;;;;;-0.89;100.00;100617.69;5075030;28;20139;-71
2021/12/14 08:44:33;;;;;;;1.85;1.45;;;;;;;-0.91;100.00;100611.75;5075692;28;20075;-65
2021/12/14 08:47:01;;;;;;;2.33;1.40;;;;;;;-0.88;100.00;100620.22;5075363;28;20466;-71
2021/12/14 08:49:28;;;;;;;;;;;;;;;-0.85;100.00;100613.41;5075515;28;20147;-66
2021/12/14 08:51:56;;;;;;;1.77;1.42;;;;;;;-0.86;100.00;100612.56;5074538;28;20267;-69
2021/12/14 08:54:27;;;;;;;1.25;1.15;;;;;;;-0.82;100.00;100609.13;5074848;28;20045;-65
2021/12/14 08:56:57;;;;;;;1.58;1.48;;;;;;;-0.89;100.00;100617.69;5074655;28;20040;-68
2021/12/14 08:59:25;;;;;;;2.28;1.45;;;;;;;-0.79;100.00;100610.78;5074665;28;20139;-67
2021/12/14 09:01:53;;;;;;;0.90;0.90;;;;;;;-0.88;100.00;100604.91;5074566;28;20083;-72
2021/12/14 09:04:23;;;;;;;2.78;1.75;;;;;;;-0.91;100.00;100610.03;5074972;28;20135;-70
2021/12/14 09:06:56;;;;;;;2.65;1.42;;;;;;;-0.83;100.00;100619.34;5074942;28;20043;-66
2021/12/14 09:09:25;;;;;;;1.88;1.55;;;;;;;-0.85;100.00;100613.41;5074964;28;20048;-70
2021/12/14 09:11:57;;;;;;;2.03;1.45;;;;;;;-0.87;100.00;100616.00;5074560;28;20062;-69
2021/12/14 09:14:24;;;;;;;1.90;1.40;;;;;;;-0.79;100.00;100603.13;5074748;28;20131;-66
2021/12/14 09:16:57;;;;;;;3.05;1.40;;;;;;;-0.81;100.00;100608.25;5074298;28;20127;-68
2021/12/14 09:19:27;;;;;;;4.40;1.73;;;;;;;-0.83;100.00;100607.41;5074691;28;20140;-67
2021/12/14 09:21:57;;;;;;;1.98;1.60;;;;;;;-0.84;100.00;100595.50;5074483;28;20074;-65
2021/12/14 09:24:29;;;;;;;1.70;1.48;;;;;;;-0.85;100.00;100598.91;5074458;28;20051;-68
2021/12/14 09:27:00;;;;;;;2.47;1.75;;;;;;;-0.81;100.00;100598.03;5074504;28;20127;-65
2021/12/14 09:29:30;;;;;;;3.65;1.67;;;;;;;-0.79;100.00;100601.41;5074264;28;20129;-70
2021/12/14 09:32:00;;;;;;;1.63;1.40;;;;;;;-0.82;100.00;100596.34;5074308;28;20139;-65
2021/12/14 09:34:30;;;;;;;1.90;1.08;;;;;;;-0.83;100.00;100604.00;5074105;28;20483;-65
2021/12/14 09:36:58;;;;;;;2.25;1.95;;;;;;;-0.85;100.00;100598.06;5074235;28;20049;-69
2021/12/14 09:39:31;;;;;;;2.05;1.67;;;;;;;-0.84;100.00;100594.69;5074118;28;20040;-66
2021/12/14 09:42:02;;;;;;;2.03;1.80;;;;;;;-0.80;100.00;100596.31;5074376;28;20102;-67
2021/12/14 09:44:33;;;;;;;3.22;1.85;;;;;;;-0.78;100.00;100592.03;5073926;28;20087;-66
2021/12/14 09:47:04;;;;;;;2.13;1.70;;;;;;;-0.75;100.00;100600.50;5074273;28;20074;-66
2021/12/14 09:49:31;;;;;;;3.92;1.73;;;;;;;-0.79;100.00;100595.47;5073843;28;20079;-64
2021/12/14 09:52:02;;;;;;;2.40;1.65;;;;;;;-0.77;100.00;100601.38;5073050;28;20948;-70
2021/12/14 09:54:31;;;;;;;2.30;1.73;;;;;;;-0.81;100.00;100592.06;5073818;28;20041;-67
2021/12/14 09:57:02;;;;;;;2.08;1.63;;;;;;;-0.80;100.00;100594.59;5073603;28;20080;-67
2021/12/14 09:59:29;;;;;;;4.60;2.00;;;;;;;-0.76;100.00;100596.28;5073770;28;20076;-65
2021/12/14 10:02:00;;;;;;;6.18;2.83;;;;;;;-0.77;100.00;100594.59;5073493;28;20139;-67
2021/12/14 10:04:30;;;;;;;6.72;2.35;;;;;;;-0.78;100.00;100600.53;5073446;28;20153;-68
2021/12/14 10:07:02;;;;;;;3.13;2.42;;;;;;;-0.82;100.00;100598.03;5073416;28;20139;-66
2021/12/14 10:09:39;;;;;;;2.92;1.80;;;;;;;-0.84;100.00;100597.22;5073626;28;20051;-63
2021/12/14 10:12:18;;;;;;;4.15;3.03;;;;;;;-0.86;100.00;100583.63;5072734;28;20406;-62
2021/12/14 10:14:50;;;;;;;6.90;3.75;;;;;;;-0.85;100.00;100590.41;5073080;28;20406;-67
2021/12/14 10:17:23;;;;;;;8.65;4.43;;;;;;;-0.84;100.00;100592.13;5073289;28;20059;-65
2021/12/14 10:19:50;;;;;;;3.75;2.65;;;;;;;-0.84;100.00;100594.69;5073021;28;20491;-68
2021/12/14 10:22:23;;;;;;;4.28;3.22;;;;;;;-0.84;100.00;100592.13;5073056;28;20498;-68
2021/12/14 10:24:52;;;;;;;3.10;2.13;;;;;;;-0.85;100.00;100598.91;5073131;28;20078;-70
2021/12/14 10:27:22;;;;;;;5.60;3.13;;;;;;;-0.86;100.00;100592.13;5072916;28;20131;-64
2021/12/14 10:29:49;;;;;;;6.50;3.45;;;;;;;-0.89;100.00;100594.72;5072926;28;20132;-63
2021/12/14 10:32:20;;;;;;;5.65;3.53;;;;;;;-0.87;100.00;100595.56;5072805;28;20482;-70
2021/12/14 10:34:50;;;;;;;1.75;1.65;;;;;;;-0.87;100.00;100600.66;5072843;28;20044;-68
2021/12/14 10:37:24;;;;;;;3.33;2.42;;;;;;;-0.89;100.00;100595.56;5073134;28;20090;-64
2021/12/14 10:45:25;;;;;;;4.78;2.67;;;;;;;-0.84;100.00;100592.13;5059673;28;20048;-68
2021/12/14 10:47:52;;;;;;;3.08;2.30;;;;;;;-0.84;100.00;100597.22;5072655;28;20127;-76
2021/12/14 10:50:22;;;;;;;;;;;;;;;-0.83;100.00;100592.09;5073037;28;20048;-68
2021/12/14 10:52:50;;;;;;;3.83;2.53;;;;;;;-0.85;100.00;100591.25;5072234;28;20235;-63
2021/12/14 10:55:23;;;;;;;6.13;3.83;;;;;;;-0.82;100.00;100592.91;5072768;28;20066;-63
2021/12/14 10:57:50;;;;;;;5.32;3.72;;;;;;;-0.79;100.00;100580.97;5072854;28;20044;-75
2021/12/14 11:00:28;;;;;;;5.00;3.22;;;;;;;-0.82;100.00;100586.13;5072491;28;20048;-65
2021/12/14 11:03:00;;;;;;;1.42;1.33;;;;;;;-0.81;100.00;100594.63;5071269;28;20055;-64
2021/12/14 11:05:28;;;;;;;6.78;4.22;;;;;;;-0.86;100.00;100596.41;5072370;28;20047;-67
2021/12/14 11:07:55;;;;;;;5.25;4.03;;;;;;;-0.81;100.00;100592.91;5072510;28;20127;-64
2021/12/14 11:10:33;;;;;;;3.85;3.03;;;;;;;-0.78;100.00;100587.78;5072432;28;20090;-64
2021/12/14 11:13:06;;;;;;;7.40;4.15;;;;;;;-0.82;100.00;100590.38;5071907;28;20097;-64
2021/12/14 11:15:36;;;;;;;6.13;3.53;;;;;;;-0.85;100.00;100591.25;5072178;28;20044;-62
2021/12/14 11:18:11;;;;;;;5.78;3.85;;;;;;;-0.84;100.00;100590.41;5072270;28;20498;-63
2021/12/14 11:20:43;;;;;;;4.15;2.97;;;;;;;-0.85;100.00;100591.25;5072359;28;20049;-64
2021/12/14 11:23:12;;;;;;;3.60;2.25;;;;;;;-0.86;100.00;100592.13;5072269;28;20147;-66
2021/12/14 11:25:53;;;;;;;3.35;2.83;;;;;;;-0.86;100.00;100588.72;5072081;28;20553;-68
2021/12/14 11:28:24;;;;;;;3.42;2.75;;;;;;;-0.88;100.00;100597.25;5072251;28;20136;-63
2021/12/14 11:31:02;;;;;;;6.53;3.45;;;;;;;-0.86;100.00;100591.28;5072434;28;20052;-63
2021/12/14 11:33:32;;;;;;;4.78;3.35;;;;;;;-0.89;100.00;100599.81;5072510;28;20052;-70
2021/12/14 11:36:06;;;;;;;4.90;2.95;;;;;;;-0.92;100.00;100584.53;5072375;28;20123;-63
2021/12/14 11:38:38;;;;;;;5.57;3.83;;;;;;;-0.89;100.00;100579.38;5071996;28;20127;-66
2021/12/14 11:41:24;;;;;;;5.28;2.63;;;;;;;-0.87;100.00;100580.22;5071944;28;20147;-65
2021/12/14 11:43:54;;;;;;;5.13;3.58;;;;;;;-0.87;100.00;100582.78;5072544;28;20045;-67
2021/12/14 11:46:21;;;;;;;4.20;3.17;;;;;;;-0.91;100.00;100576.00;5072111;28;20127;-64
2021/12/14 11:48:49;;;;;;;2.60;1.85;;;;;;;-0.91;100.00;100583.66;5071922;28;20127;-75
2021/12/14 11:51:16;;;;;;;;;;;;;;;-0.97;100.00;100581.19;5072072;28;20044;-73
2021/12/14 11:53:49;;;;;;;2.55;2.17;;;;;;;-1.02;100.00;100588.88;5071850;28;20011;-65
2021/12/14 11:56:21;;;;;;;3.28;1.90;;;;;;;-1.03;100.00;100592.28;5071921;28;20127;-70
2021/12/14 11:58:51;;;;;;;3.10;1.92;;;;;;;-1.05;100.00;100590.59;5071919;28;20132;-75
2021/12/14 12:01:24;;;;;;;3.22;2.45;;;;;;;-1.02;100.00;100588.03;5071781;28;20045;-66
2021/12/14 12:03:56;;;;;;;3.20;2.53;;;;;;;-1.08;100.00;100590.63;5071740;28;20127;-63